sensor_id;sensor_type;location;lat;lon;timestamp;temperature;humidity
27858;DHT22;16852;51.446;6.528;2023-06-22T00:01:33;23.70;99.90
27858;DHT22;16852;51.446;6.528;2023-06-22T00:03:35;23.50;99.90
27858;DHT22;16852;51.446;6.528;2023-06-22T00:05:35;23.40;99.90
27858;DHT22;16852;51.446;6.528;2023-06-22T00:07:36;23.20;99.90
27858;DHT22;16852;51.446;6.528;2023-06-22T00:09:37;23.10;99.90
27858;DHT22;16852;51.446;6.528;2023-06-22T00:11:38;23.10;99.90
27858;DHT22;16852;51.446;6.528;2023-06-22T00:13:38;23.10;99.90
27858;DHT22;16852;51.446;6.528;2023-06-22T00:15:40;23.00;99.90
27858;DHT22;16852;51.446;6.528;2023-06-22T00:17:41;23.00;99.90
27858;DHT22;16852;51.446;6.528;2023-06-22T00:19:42;22.90;99.90
27858;DHT22;16852;51.446;6.528;2023-06-22T00:21:43;22.90;99.90
27858;DHT22;16852;51.446;6.528;2023-06-22T00:23:47;22.90;99.90
27858;DHT22;16852;51.446;6.528;2023-06-22T00:25:48;22.90;99.90
27858;DHT22;16852;51.446;6.528;2023-06-22T00:27:48;22.90;99.90
27858;DHT22;16852;51.446;6.528;2023-06-22T00:29:49;22.90;99.90
27858;DHT22;16852;51.446;6.528;2023-06-22T00:31:50;22.80;99.90
27858;DHT22;16852;51.446;6.528;2023-06-22T00:33:50;22.90;99.90
27858;DHT22;16852;51.446;6.528;2023-06-22T00:35:51;22.80;99.90
27858;DHT22;16852;51.446;6.528;2023-06-22T00:37:53;23.00;99.90
27858;DHT22;16852;51.446;6.528;2023-06-22T00:40:00;22.90;99.90
27858;DHT22;16852;51.446;6.528;2023-06-22T00:42:01;22.90;99.90
27858;DHT22;16852;51.446;6.528;2023-06-22T00:44:01;23.00;99.90
27858;DHT22;16852;51.446;6.528;2023-06-22T00:46:02;23.00;99.90
27858;DHT22;16852;51.446;6.528;2023-06-22T00:48:03;23.00;99.90
27858;DHT22;16852;51.446;6.528;2023-06-22T00:50:06;22.90;99.90
27858;DHT22;16852;51.446;6.528;2023-06-22T00:52:08;22.90;99.90
27858;DHT22;16852;51.446;6.528;2023-06-22T00:54:14;22.80;99.90
27858;DHT22;16852;51.446;6.528;2023-06-22T00:56:14;22.70;99.90
27858;DHT22;16852;51.446;6.528;2023-06-22T00:58:15;22.60;99.90
27858;DHT22;16852;51.446;6.528;2023-06-22T01:00:16;22.70;99.90
27858;DHT22;16852;51.446;6.528;2023-06-22T01:02:18;22.70;99.90
27858;DHT22;16852;51.446;6.528;2023-06-22T01:04:19;22.80;99.90
27858;DHT22;16852;51.446;6.528;2023-06-22T01:06:26;22.80;99.90
27858;DHT22;16852;51.446;6.528;2023-06-22T01:08:38;22.80;99.90
27858;DHT22;16852;51.446;6.528;2023-06-22T01:11:04;22.80;99.90
27858;DHT22;16852;51.446;6.528;2023-06-22T01:13:37;22.80;99.90
27858;DHT22;16852;51.446;6.528;2023-06-22T01:15:45;22.80;99.90
27858;DHT22;16852;51.446;6.528;2023-06-22T01:17:48;22.80;99.90
27858;DHT22;16852;51.446;6.528;2023-06-22T01:19:51;22.90;99.90
27858;DHT22;16852;51.446;6.528;2023-06-22T01:21:58;23.00;99.90
27858;DHT22;16852;51.446;6.528;2023-06-22T01:26:34;23.00;99.90
27858;DHT22;16852;51.446;6.528;2023-06-22T01:28:48;23.00;99.90
27858;DHT22;16852;51.446;6.528;2023-06-22T01:30:49;23.10;99.90
27858;DHT22;16852;51.446;6.528;2023-06-22T01:33:05;23.10;99.90
27858;DHT22;16852;51.446;6.528;2023-06-22T01:35:08;23.10;99.90
27858;DHT22;16852;51.446;6.528;2023-06-22T01:37:11;23.10;99.90
27858;DHT22;16852;51.446;6.528;2023-06-22T01:39:12;23.10;99.90
27858;DHT22;16852;51.446;6.528;2023-06-22T01:41:15;23.10;99.90
27858;DHT22;16852;51.446;6.528;2023-06-22T01:43:17;23.10;99.90
27858;DHT22;16852;51.446;6.528;2023-06-22T01:45:18;23.10;99.90
27858;DHT22;16852;51.446;6.528;2023-06-22T01:47:22;23.00;99.90
27858;DHT22;16852;51.446;6.528;2023-06-22T01:49:23;22.80;99.90
27858;DHT22;16852;51.446;6.528;2023-06-22T01:51:24;22.70;99.90
27858;DHT22;16852;51.446;6.528;2023-06-22T01:53:25;22.60;99.90
27858;DHT22;16852;51.446;6.528;2023-06-22T01:55:25;22.50;99.90
27858;DHT22;16852;51.446;6.528;2023-06-22T01:57:26;22.50;99.90
27858;DHT22;16852;51.446;6.528;2023-06-22T02:02:00;22.60;99.90
27858;DHT22;16852;51.446;6.528;2023-06-22T02:04:13;22.60;99.90
27858;DHT22;16852;51.446;6.528;2023-06-22T02:06:17;22.70;99.90
27858;DHT22;16852;51.446;6.528;2023-06-22T02:08:22;22.70;99.90
27858;DHT22;16852;51.446;6.528;2023-06-22T02:10:24;22.70;99.90
27858;DHT22;16852;51.446;6.528;2023-06-22T02:12:26;22.70;99.90
27858;DHT22;16852;51.446;6.528;2023-06-22T02:14:28;22.80;99.90
27858;DHT22;16852;51.446;6.528;2023-06-22T02:16:31;22.80;99.90
27858;DHT22;16852;51.446;6.528;2023-06-22T02:18:32;22.70;99.90
27858;DHT22;16852;51.446;6.528;2023-06-22T02:20:39;22.80;99.90
27858;DHT22;16852;51.446;6.528;2023-06-22T02:22:40;22.70;99.90
27858;DHT22;16852;51.446;6.528;2023-06-22T02:24:41;22.80;99.90
27858;DHT22;16852;51.446;6.528;2023-06-22T02:26:43;22.70;99.90
27858;DHT22;16852;51.446;6.528;2023-06-22T02:28:45;22.70;99.90
27858;DHT22;16852;51.446;6.528;2023-06-22T02:30:46;22.80;99.90
27858;DHT22;16852;51.446;6.528;2023-06-22T02:32:46;22.80;99.90
27858;DHT22;16852;51.446;6.528;2023-06-22T02:34:47;22.80;99.90
27858;DHT22;16852;51.446;6.528;2023-06-22T02:36:49;22.80;99.90
27858;DHT22;16852;51.446;6.528;2023-06-22T02:38:53;22.80;99.90
27858;DHT22;16852;51.446;6.528;2023-06-22T02:40:54;22.80;99.90
27858;DHT22;16852;51.446;6.528;2023-06-22T02:42:55;22.80;99.90
27858;DHT22;16852;51.446;6.528;2023-06-22T02:44:56;22.80;99.90
27858;DHT22;16852;51.446;6.528;2023-06-22T02:46:56;22.90;99.90
27858;DHT22;16852;51.446;6.528;2023-06-22T02:48:57;22.90;99.90
27858;DHT22;16852;51.446;6.528;2023-06-22T02:50:57;22.80;99.90
27858;DHT22;16852;51.446;6.528;2023-06-22T02:52:58;22.90;99.90
27858;DHT22;16852;51.446;6.528;2023-06-22T02:54:58;22.90;99.90
27858;DHT22;16852;51.446;6.528;2023-06-22T02:56:59;22.90;99.90
27858;DHT22;16852;51.446;6.528;2023-06-22T02:59:03;22.90;99.90
27858;DHT22;16852;51.446;6.528;2023-06-22T03:01:06;22.90;99.90
27858;DHT22;16852;51.446;6.528;2023-06-22T03:03:07;22.80;99.90
27858;DHT22;16852;51.446;6.528;2023-06-22T03:05:08;22.80;99.90
27858;DHT22;16852;51.446;6.528;2023-06-22T03:07:13;22.80;99.90
27858;DHT22;16852;51.446;6.528;2023-06-22T03:09:14;22.70;99.90
27858;DHT22;16852;51.446;6.528;2023-06-22T03:11:14;22.70;99.90
27858;DHT22;16852;51.446;6.528;2023-06-22T03:13:15;22.70;99.90
27858;DHT22;16852;51.446;6.528;2023-06-22T03:15:17;22.60;99.90
27858;DHT22;16852;51.446;6.528;2023-06-22T03:17:20;22.60;99.90
27858;DHT22;16852;51.446;6.528;2023-06-22T03:19:20;22.60;99.90
27858;DHT22;16852;51.446;6.528;2023-06-22T03:21:22;22.60;99.90
27858;DHT22;16852;51.446;6.528;2023-06-22T03:23:23;22.50;99.90
27858;DHT22;16852;51.446;6.528;2023-06-22T03:25:24;22.30;99.90
27858;DHT22;16852;51.446;6.528;2023-06-22T03:27:24;22.20;99.90
27858;DHT22;16852;51.446;6.528;2023-06-22T03:29:25;22.10;99.90
27858;DHT22;16852;51.446;6.528;2023-06-22T03:31:26;22.10;99.90
27858;DHT22;16852;51.446;6.528;2023-06-22T03:33:26;21.90;99.90
27858;DHT22;16852;51.446;6.528;2023-06-22T03:35:27;21.80;99.90
27858;DHT22;16852;51.446;6.528;2023-06-22T03:37:28;21.70;99.90
27858;DHT22;16852;51.446;6.528;2023-06-22T03:39:29;21.60;99.90
27858;DHT22;16852;51.446;6.528;2023-06-22T03:41:30;21.60;99.90
27858;DHT22;16852;51.446;6.528;2023-06-22T03:43:30;21.70;99.90
27858;DHT22;16852;51.446;6.528;2023-06-22T03:45:31;21.70;99.90
27858;DHT22;16852;51.446;6.528;2023-06-22T03:47:32;21.80;99.90
27858;DHT22;16852;51.446;6.528;2023-06-22T03:49:33;21.90;99.90
27858;DHT22;16852;51.446;6.528;2023-06-22T03:51:34;21.90;99.90
27858;DHT22;16852;51.446;6.528;2023-06-22T03:53:35;22.00;99.90
27858;DHT22;16852;51.446;6.528;2023-06-22T03:55:36;22.10;99.90
27858;DHT22;16852;51.446;6.528;2023-06-22T03:57:37;22.10;99.90
27858;DHT22;16852;51.446;6.528;2023-06-22T03:59:37;22.10;99.90
27858;DHT22;16852;51.446;6.528;2023-06-22T04:01:38;22.20;99.90
27858;DHT22;16852;51.446;6.528;2023-06-22T04:03:39;22.20;99.90
27858;DHT22;16852;51.446;6.528;2023-06-22T04:05:40;22.20;99.90
27858;DHT22;16852;51.446;6.528;2023-06-22T04:07:41;22.20;99.90
27858;DHT22;16852;51.446;6.528;2023-06-22T04:09:41;22.30;99.90
27858;DHT22;16852;51.446;6.528;2023-06-22T04:11:42;22.30;99.90
27858;DHT22;16852;51.446;6.528;2023-06-22T04:13:42;22.30;99.90
27858;DHT22;16852;51.446;6.528;2023-06-22T04:15:43;22.40;99.90
27858;DHT22;16852;51.446;6.528;2023-06-22T04:17:43;22.40;99.90
27858;DHT22;16852;51.446;6.528;2023-06-22T04:19:44;22.40;99.90
27858;DHT22;16852;51.446;6.528;2023-06-22T04:21:45;22.50;99.90
27858;DHT22;16852;51.446;6.528;2023-06-22T04:23:46;22.50;99.90
27858;DHT22;16852;51.446;6.528;2023-06-22T04:25:47;22.50;99.90
27858;DHT22;16852;51.446;6.528;2023-06-22T04:27:47;22.50;99.90
27858;DHT22;16852;51.446;6.528;2023-06-22T04:29:48;22.60;99.90
27858;DHT22;16852;51.446;6.528;2023-06-22T04:31:49;22.60;99.90
27858;DHT22;16852;51.446;6.528;2023-06-22T04:33:51;22.60;99.90
27858;DHT22;16852;51.446;6.528;2023-06-22T04:35:51;22.60;99.90
27858;DHT22;16852;51.446;6.528;2023-06-22T04:37:53;22.60;99.90
27858;DHT22;16852;51.446;6.528;2023-06-22T04:39:55;22.60;99.90
27858;DHT22;16852;51.446;6.528;2023-06-22T04:41:56;22.60;99.90
27858;DHT22;16852;51.446;6.528;2023-06-22T04:44:00;22.60;99.90
27858;DHT22;16852;51.446;6.528;2023-06-22T04:46:01;22.60;99.90
27858;DHT22;16852;51.446;6.528;2023-06-22T04:48:04;22.60;99.90
27858;DHT22;16852;51.446;6.528;2023-06-22T04:50:05;22.50;99.90
27858;DHT22;16852;51.446;6.528;2023-06-22T04:52:07;22.50;99.90
27858;DHT22;16852;51.446;6.528;2023-06-22T04:54:09;22.40;99.90
27858;DHT22;16852;51.446;6.528;2023-06-22T04:56:10;22.40;99.90
27858;DHT22;16852;51.446;6.528;2023-06-22T04:58:10;22.40;99.90
27858;DHT22;16852;51.446;6.528;2023-06-22T05:00:13;22.40;99.90
27858;DHT22;16852;51.446;6.528;2023-06-22T05:02:17;22.40;99.90
27858;DHT22;16852;51.446;6.528;2023-06-22T05:04:17;22.30;99.90
27858;DHT22;16852;51.446;6.528;2023-06-22T05:06:18;22.30;99.90
27858;DHT22;16852;51.446;6.528;2023-06-22T05:08:19;22.40;99.90
27858;DHT22;16852;51.446;6.528;2023-06-22T05:10:20;22.40;99.90
27858;DHT22;16852;51.446;6.528;2023-06-22T05:12:20;22.40;99.90
27858;DHT22;16852;51.446;6.528;2023-06-22T05:14:21;22.30;99.90
27858;DHT22;16852;51.446;6.528;2023-06-22T05:16:22;22.30;99.90
27858;DHT22;16852;51.446;6.528;2023-06-22T05:18:27;22.30;99.90
27858;DHT22;16852;51.446;6.528;2023-06-22T05:20:28;22.30;99.90
27858;DHT22;16852;51.446;6.528;2023-06-22T05:22:28;22.30;99.90
27858;DHT22;16852;51.446;6.528;2023-06-22T05:24:29;22.30;99.90
27858;DHT22;16852;51.446;6.528;2023-06-22T05:26:30;22.30;99.90
27858;DHT22;16852;51.446;6.528;2023-06-22T05:28:32;22.20;99.90
27858;DHT22;16852;51.446;6.528;2023-06-22T05:30:33;22.30;99.90
27858;DHT22;16852;51.446;6.528;2023-06-22T05:32:34;22.30;99.90
27858;DHT22;16852;51.446;6.528;2023-06-22T05:34:35;22.30;99.90
27858;DHT22;16852;51.446;6.528;2023-06-22T05:36:36;22.40;99.90
27858;DHT22;16852;51.446;6.528;2023-06-22T05:38:46;22.40;99.90
27858;DHT22;16852;51.446;6.528;2023-06-22T05:40:46;22.40;99.90
27858;DHT22;16852;51.446;6.528;2023-06-22T05:42:47;22.40;99.90
27858;DHT22;16852;51.446;6.528;2023-06-22T05:44:48;22.40;99.90
27858;DHT22;16852;51.446;6.528;2023-06-22T05:46:48;22.40;99.90
27858;DHT22;16852;51.446;6.528;2023-06-22T05:48:49;22.50;99.90
27858;DHT22;16852;51.446;6.528;2023-06-22T05:50:49;22.50;99.90
27858;DHT22;16852;51.446;6.528;2023-06-22T05:52:50;22.50;99.90
27858;DHT22;16852;51.446;6.528;2023-06-22T05:54:51;22.60;99.90
27858;DHT22;16852;51.446;6.528;2023-06-22T05:56:51;22.60;99.90
27858;DHT22;16852;51.446;6.528;2023-06-22T05:58:52;22.70;99.90
27858;DHT22;16852;51.446;6.528;2023-06-22T06:00:52;22.70;99.90
27858;DHT22;16852;51.446;6.528;2023-06-22T06:02:53;22.70;99.90
27858;DHT22;16852;51.446;6.528;2023-06-22T06:04:53;22.70;99.90
27858;DHT22;16852;51.446;6.528;2023-06-22T06:06:54;22.70;99.90
27858;DHT22;16852;51.446;6.528;2023-06-22T06:08:55;22.80;99.90
27858;DHT22;16852;51.446;6.528;2023-06-22T06:10:56;22.80;99.90
27858;DHT22;16852;51.446;6.528;2023-06-22T06:12:58;22.80;99.90
27858;DHT22;16852;51.446;6.528;2023-06-22T06:14:58;22.80;99.90
27858;DHT22;16852;51.446;6.528;2023-06-22T06:16:59;22.80;99.90
27858;DHT22;16852;51.446;6.528;2023-06-22T06:19:00;22.80;99.90
27858;DHT22;16852;51.446;6.528;2023-06-22T06:21:00;22.80;99.90
27858;DHT22;16852;51.446;6.528;2023-06-22T06:23:01;22.80;99.90
27858;DHT22;16852;51.446;6.528;2023-06-22T06:25:02;22.80;99.90
27858;DHT22;16852;51.446;6.528;2023-06-22T06:27:02;22.80;99.90
27858;DHT22;16852;51.446;6.528;2023-06-22T06:29:05;22.80;99.90
27858;DHT22;16852;51.446;6.528;2023-06-22T06:31:05;22.80;99.90
27858;DHT22;16852;51.446;6.528;2023-06-22T06:33:08;22.80;99.90
27858;DHT22;16852;51.446;6.528;2023-06-22T06:35:10;22.70;99.90
27858;DHT22;16852;51.446;6.528;2023-06-22T06:37:10;22.70;99.90
27858;DHT22;16852;51.446;6.528;2023-06-22T06:39:11;22.70;99.90
27858;DHT22;16852;51.446;6.528;2023-06-22T06:41:15;22.70;99.90
27858;DHT22;16852;51.446;6.528;2023-06-22T06:43:16;22.70;99.90
27858;DHT22;16852;51.446;6.528;2023-06-22T06:45:20;22.80;99.90
27858;DHT22;16852;51.446;6.528;2023-06-22T06:47:23;22.70;99.90
27858;DHT22;16852;51.446;6.528;2023-06-22T06:49:23;22.70;99.90
27858;DHT22;16852;51.446;6.528;2023-06-22T06:51:24;22.70;99.90
27858;DHT22;16852;51.446;6.528;2023-06-22T06:53:25;22.70;99.90
27858;DHT22;16852;51.446;6.528;2023-06-22T06:55:25;22.80;99.90
27858;DHT22;16852;51.446;6.528;2023-06-22T06:57:26;22.80;99.90
27858;DHT22;16852;51.446;6.528;2023-06-22T06:59:29;22.80;99.90
27858;DHT22;16852;51.446;6.528;2023-06-22T07:01:30;22.80;99.90
27858;DHT22;16852;51.446;6.528;2023-06-22T07:03:34;22.80;99.90
27858;DHT22;16852;51.446;6.528;2023-06-22T07:05:35;22.70;99.90
27858;DHT22;16852;51.446;6.528;2023-06-22T07:07:36;22.70;99.90
27858;DHT22;16852;51.446;6.528;2023-06-22T07:09:37;22.70;99.90
27858;DHT22;16852;51.446;6.528;2023-06-22T07:11:38;22.70;99.90
27858;DHT22;16852;51.446;6.528;2023-06-22T07:13:38;22.60;99.90
27858;DHT22;16852;51.446;6.528;2023-06-22T07:15:39;22.70;99.90
27858;DHT22;16852;51.446;6.528;2023-06-22T07:17:39;22.70;99.90
27858;DHT22;16852;51.446;6.528;2023-06-22T07:19:43;22.60;99.90
27858;DHT22;16852;51.446;6.528;2023-06-22T07:21:43;22.60;99.90
27858;DHT22;16852;51.446;6.528;2023-06-22T07:23:44;22.70;99.90
27858;DHT22;16852;51.446;6.528;2023-06-22T07:25:44;22.70;99.90
27858;DHT22;16852;51.446;6.528;2023-06-22T07:28:07;22.60;99.90
27858;DHT22;16852;51.446;6.528;2023-06-22T07:30:07;22.70;99.90
27858;DHT22;16852;51.446;6.528;2023-06-22T07:32:08;22.80;99.90
27858;DHT22;16852;51.446;6.528;2023-06-22T07:34:09;22.80;99.90
27858;DHT22;16852;51.446;6.528;2023-06-22T07:36:10;22.80;99.90
27858;DHT22;16852;51.446;6.528;2023-06-22T07:38:10;22.90;99.90
27858;DHT22;16852;51.446;6.528;2023-06-22T07:40:11;23.00;99.90
27858;DHT22;16852;51.446;6.528;2023-06-22T07:42:12;23.00;99.90
27858;DHT22;16852;51.446;6.528;2023-06-22T07:44:12;22.90;99.90
27858;DHT22;16852;51.446;6.528;2023-06-22T07:46:13;22.90;99.90
27858;DHT22;16852;51.446;6.528;2023-06-22T07:48:14;22.80;99.90
27858;DHT22;16852;51.446;6.528;2023-06-22T07:50:14;22.80;99.90
27858;DHT22;16852;51.446;6.528;2023-06-22T07:52:15;22.70;99.90
27858;DHT22;16852;51.446;6.528;2023-06-22T07:54:15;22.80;99.90
27858;DHT22;16852;51.446;6.528;2023-06-22T07:56:17;22.70;99.90
27858;DHT22;16852;51.446;6.528;2023-06-22T07:58:21;22.60;99.90
27858;DHT22;16852;51.446;6.528;2023-06-22T08:00:21;22.50;99.90
27858;DHT22;16852;51.446;6.528;2023-06-22T08:02:22;22.40;99.90
27858;DHT22;16852;51.446;6.528;2023-06-22T08:04:22;22.30;99.90
27858;DHT22;16852;51.446;6.528;2023-06-22T08:06:23;22.20;99.90
27858;DHT22;16852;51.446;6.528;2023-06-22T08:08:24;22.10;99.90
27858;DHT22;16852;51.446;6.528;2023-06-22T08:10:25;22.10;99.90
27858;DHT22;16852;51.446;6.528;2023-06-22T08:12:26;22.20;99.90
27858;DHT22;16852;51.446;6.528;2023-06-22T08:14:27;22.30;99.90
27858;DHT22;16852;51.446;6.528;2023-06-22T08:16:28;22.30;99.90
27858;DHT22;16852;51.446;6.528;2023-06-22T08:18:28;22.30;99.90
27858;DHT22;16852;51.446;6.528;2023-06-22T08:20:29;22.50;99.90
27858;DHT22;16852;51.446;6.528;2023-06-22T08:22:29;22.50;99.90
27858;DHT22;16852;51.446;6.528;2023-06-22T08:24:30;22.60;99.90
27858;DHT22;16852;51.446;6.528;2023-06-22T08:26:31;22.70;99.90
27858;DHT22;16852;51.446;6.528;2023-06-22T08:28:33;22.70;99.90
27858;DHT22;16852;51.446;6.528;2023-06-22T08:30:34;22.70;99.90
27858;DHT22;16852;51.446;6.528;2023-06-22T08:32:34;22.80;99.90
27858;DHT22;16852;51.446;6.528;2023-06-22T08:34:36;22.90;99.90
27858;DHT22;16852;51.446;6.528;2023-06-22T08:36:36;22.90;99.90
27858;DHT22;16852;51.446;6.528;2023-06-22T08:38:37;23.00;99.90
27858;DHT22;16852;51.446;6.528;2023-06-22T08:40:38;23.00;99.90
27858;DHT22;16852;51.446;6.528;2023-06-22T08:42:40;23.00;99.90
27858;DHT22;16852;51.446;6.528;2023-06-22T08:44:41;22.70;99.90
27858;DHT22;16852;51.446;6.528;2023-06-22T08:46:42;22.70;99.90
27858;DHT22;16852;51.446;6.528;2023-06-22T08:48:42;22.80;99.90
27858;DHT22;16852;51.446;6.528;2023-06-22T08:50:43;22.80;99.90
27858;DHT22;16852;51.446;6.528;2023-06-22T08:52:44;22.80;99.90
27858;DHT22;16852;51.446;6.528;2023-06-22T08:54:46;22.80;99.90
27858;DHT22;16852;51.446;6.528;2023-06-22T08:56:47;22.80;99.90
27858;DHT22;16852;51.446;6.528;2023-06-22T08:58:48;22.80;99.90
27858;DHT22;16852;51.446;6.528;2023-06-22T09:00:48;22.90;99.90
27858;DHT22;16852;51.446;6.528;2023-06-22T09:02:49;22.80;99.90
27858;DHT22;16852;51.446;6.528;2023-06-22T09:04:50;22.90;99.90
27858;DHT22;16852;51.446;6.528;2023-06-22T09:06:55;22.80;99.90
27858;DHT22;16852;51.446;6.528;2023-06-22T09:08:56;22.90;99.90
27858;DHT22;16852;51.446;6.528;2023-06-22T09:10:59;22.80;99.90
27858;DHT22;16852;51.446;6.528;2023-06-22T09:13:00;22.70;99.90
27858;DHT22;16852;51.446;6.528;2023-06-22T09:15:01;22.80;99.90
27858;DHT22;16852;51.446;6.528;2023-06-22T09:17:03;22.70;99.90
27858;DHT22;16852;51.446;6.528;2023-06-22T09:19:03;22.80;99.90
27858;DHT22;16852;51.446;6.528;2023-06-22T09:21:04;22.90;99.90
27858;DHT22;16852;51.446;6.528;2023-06-22T09:23:04;22.80;99.90
27858;DHT22;16852;51.446;6.528;2023-06-22T09:25:05;22.90;99.90
27858;DHT22;16852;51.446;6.528;2023-06-22T09:27:06;22.90;99.90
27858;DHT22;16852;51.446;6.528;2023-06-22T09:29:07;23.00;99.90
27858;DHT22;16852;51.446;6.528;2023-06-22T09:31:07;23.10;99.90
27858;DHT22;16852;51.446;6.528;2023-06-22T09:33:08;23.10;99.90
27858;DHT22;16852;51.446;6.528;2023-06-22T09:35:08;23.00;99.90
27858;DHT22;16852;51.446;6.528;2023-06-22T09:37:10;23.10;99.90
27858;DHT22;16852;51.446;6.528;2023-06-22T09:39:10;23.10;99.90
27858;DHT22;16852;51.446;6.528;2023-06-22T09:41:11;23.20;99.90
27858;DHT22;16852;51.446;6.528;2023-06-22T09:43:11;23.20;99.90
27858;DHT22;16852;51.446;6.528;2023-06-22T09:45:12;23.10;99.90
27858;DHT22;16852;51.446;6.528;2023-06-22T09:47:13;23.10;99.90
27858;DHT22;16852;51.446;6.528;2023-06-22T09:49:13;23.20;99.90
27858;DHT22;16852;51.446;6.528;2023-06-22T09:51:14;23.30;99.90
27858;DHT22;16852;51.446;6.528;2023-06-22T09:53:15;23.40;99.90
27858;DHT22;16852;51.446;6.528;2023-06-22T09:55:16;23.30;99.90
27858;DHT22;16852;51.446;6.528;2023-06-22T09:57:16;23.30;99.90
27858;DHT22;16852;51.446;6.528;2023-06-22T09:59:17;23.40;99.90
27858;DHT22;16852;51.446;6.528;2023-06-22T10:01:18;23.50;99.90
27858;DHT22;16852;51.446;6.528;2023-06-22T10:03:19;23.50;99.90
27858;DHT22;16852;51.446;6.528;2023-06-22T10:05:19;23.60;99.90
27858;DHT22;16852;51.446;6.528;2023-06-22T10:07:20;23.70;99.90
27858;DHT22;16852;51.446;6.528;2023-06-22T10:09:20;23.90;99.90
27858;DHT22;16852;51.446;6.528;2023-06-22T10:11:21;24.00;99.90
27858;DHT22;16852;51.446;6.528;2023-06-22T10:13:27;24.10;99.90
27858;DHT22;16852;51.446;6.528;2023-06-22T10:15:27;24.30;99.90
27858;DHT22;16852;51.446;6.528;2023-06-22T10:17:28;24.30;99.90
27858;DHT22;16852;51.446;6.528;2023-06-22T10:19:29;24.40;99.90
27858;DHT22;16852;51.446;6.528;2023-06-22T10:21:29;24.50;99.90
27858;DHT22;16852;51.446;6.528;2023-06-22T10:23:30;24.60;99.90
27858;DHT22;16852;51.446;6.528;2023-06-22T10:25:30;24.70;99.90
27858;DHT22;16852;51.446;6.528;2023-06-22T10:27:31;24.80;99.90
27858;DHT22;16852;51.446;6.528;2023-06-22T10:29:31;24.90;99.90
27858;DHT22;16852;51.446;6.528;2023-06-22T10:31:32;24.90;99.90
27858;DHT22;16852;51.446;6.528;2023-06-22T10:33:33;25.00;99.90
27858;DHT22;16852;51.446;6.528;2023-06-22T10:35:34;25.00;99.90
27858;DHT22;16852;51.446;6.528;2023-06-22T10:37:35;25.10;99.90
27858;DHT22;16852;51.446;6.528;2023-06-22T10:39:35;25.20;99.90
27858;DHT22;16852;51.446;6.528;2023-06-22T10:41:36;25.10;99.90
27858;DHT22;16852;51.446;6.528;2023-06-22T10:43:36;25.20;99.90
27858;DHT22;16852;51.446;6.528;2023-06-22T10:45:37;25.30;99.90
27858;DHT22;16852;51.446;6.528;2023-06-22T10:47:37;25.30;99.90
27858;DHT22;16852;51.446;6.528;2023-06-22T10:49:39;25.20;99.90
27858;DHT22;16852;51.446;6.528;2023-06-22T10:51:39;25.40;99.90
27858;DHT22;16852;51.446;6.528;2023-06-22T10:53:40;25.40;99.90
27858;DHT22;16852;51.446;6.528;2023-06-22T10:55:40;25.40;99.90
27858;DHT22;16852;51.446;6.528;2023-06-22T10:57:41;25.40;99.90
27858;DHT22;16852;51.446;6.528;2023-06-22T10:59:47;25.30;99.90
27858;DHT22;16852;51.446;6.528;2023-06-22T11:01:47;25.30;99.90
27858;DHT22;16852;51.446;6.528;2023-06-22T11:03:48;25.20;99.90
27858;DHT22;16852;51.446;6.528;2023-06-22T11:05:48;25.00;99.90
27858;DHT22;16852;51.446;6.528;2023-06-22T11:07:49;25.00;99.90
27858;DHT22;16852;51.446;6.528;2023-06-22T11:09:50;24.90;99.90
27858;DHT22;16852;51.446;6.528;2023-06-22T11:11:52;25.00;99.90
27858;DHT22;16852;51.446;6.528;2023-06-22T11:13:53;24.90;99.90
27858;DHT22;16852;51.446;6.528;2023-06-22T11:15:54;24.80;99.90
27858;DHT22;16852;51.446;6.528;2023-06-22T11:17:54;24.70;99.90
27858;DHT22;16852;51.446;6.528;2023-06-22T11:19:55;24.70;99.90
27858;DHT22;16852;51.446;6.528;2023-06-22T11:21:55;24.70;99.90
27858;DHT22;16852;51.446;6.528;2023-06-22T11:23:57;24.50;99.90
27858;DHT22;16852;51.446;6.528;2023-06-22T11:25:57;24.50;99.90
27858;DHT22;16852;51.446;6.528;2023-06-22T11:27:58;24.70;99.90
27858;DHT22;16852;51.446;6.528;2023-06-22T11:29:59;24.70;99.90
27858;DHT22;16852;51.446;6.528;2023-06-22T11:32:00;24.70;99.90
27858;DHT22;16852;51.446;6.528;2023-06-22T11:34:00;24.90;99.90
27858;DHT22;16852;51.446;6.528;2023-06-22T11:36:01;24.90;99.90
27858;DHT22;16852;51.446;6.528;2023-06-22T11:38:02;24.90;99.90
27858;DHT22;16852;51.446;6.528;2023-06-22T11:40:05;25.00;99.90
27858;DHT22;16852;51.446;6.528;2023-06-22T11:42:07;25.00;99.90
27858;DHT22;16852;51.446;6.528;2023-06-22T11:44:09;25.10;99.90
27858;DHT22;16852;51.446;6.528;2023-06-22T11:46:10;24.80;99.90
27858;DHT22;16852;51.446;6.528;2023-06-22T11:48:10;24.60;99.90
27858;DHT22;16852;51.446;6.528;2023-06-22T11:50:11;24.40;99.90
27858;DHT22;16852;51.446;6.528;2023-06-22T11:52:12;24.40;99.90
27858;DHT22;16852;51.446;6.528;2023-06-22T11:54:12;24.40;99.90
27858;DHT22;16852;51.446;6.528;2023-06-22T11:56:13;24.40;99.90
27858;DHT22;16852;51.446;6.528;2023-06-22T11:58:13;24.50;99.90
27858;DHT22;16852;51.446;6.528;2023-06-22T12:00:14;24.40;99.90
27858;DHT22;16852;51.446;6.528;2023-06-22T12:02:18;24.50;99.90
27858;DHT22;16852;51.446;6.528;2023-06-22T12:04:18;24.50;99.90
27858;DHT22;16852;51.446;6.528;2023-06-22T12:06:19;24.50;99.90
27858;DHT22;16852;51.446;6.528;2023-06-22T12:08:20;24.50;99.90
27858;DHT22;16852;51.446;6.528;2023-06-22T12:10:21;24.50;99.90
27858;DHT22;16852;51.446;6.528;2023-06-22T12:12:22;24.40;99.90
27858;DHT22;16852;51.446;6.528;2023-06-22T12:14:23;24.40;99.90
27858;DHT22;16852;51.446;6.528;2023-06-22T12:16:23;24.30;99.90
27858;DHT22;16852;51.446;6.528;2023-06-22T12:18:24;24.30;99.90
27858;DHT22;16852;51.446;6.528;2023-06-22T12:20:25;24.30;99.90
27858;DHT22;16852;51.446;6.528;2023-06-22T12:22:25;24.40;99.90
27858;DHT22;16852;51.446;6.528;2023-06-22T12:24:26;24.50;99.90
27858;DHT22;16852;51.446;6.528;2023-06-22T12:26:27;24.40;99.90
27858;DHT22;16852;51.446;6.528;2023-06-22T12:28:27;24.50;99.90
27858;DHT22;16852;51.446;6.528;2023-06-22T12:30:28;24.60;99.90
27858;DHT22;16852;51.446;6.528;2023-06-22T12:32:28;24.60;99.90
27858;DHT22;16852;51.446;6.528;2023-06-22T12:34:29;24.70;99.90
27858;DHT22;16852;51.446;6.528;2023-06-22T12:36:30;24.70;99.90
27858;DHT22;16852;51.446;6.528;2023-06-22T12:38:30;24.80;99.90
27858;DHT22;16852;51.446;6.528;2023-06-22T12:40:31;24.80;99.90
27858;DHT22;16852;51.446;6.528;2023-06-22T12:42:31;24.90;99.90
27858;DHT22;16852;51.446;6.528;2023-06-22T12:44:32;24.90;99.90
27858;DHT22;16852;51.446;6.528;2023-06-22T12:46:32;24.90;99.90
27858;DHT22;16852;51.446;6.528;2023-06-22T12:48:37;24.90;99.90
27858;DHT22;16852;51.446;6.528;2023-06-22T12:50:42;25.00;99.90
27858;DHT22;16852;51.446;6.528;2023-06-22T12:52:42;24.90;99.90